Time;durP1;ratioP1;P1;durP2;ratioP2;P2;SDS_P1;SDS_P2;PMS_P1;PMS_P2;Temp;Humidity;BMP_temperature;BMP_pressure;BME280_temperature;BME280_humidity;BME280_pressure;Samples;Min_cycle;Max_cycle;Signal;HPM_P1;HPM_P2
2022/05/31 00:01:36;;;;;;;6.05;3.00;;;;;;;16.56;53.25;99536.63;4451512;32;33070;-64
2022/05/31 00:04:04;;;;;;;7.30;3.22;;;;;;;16.49;52.73;99544.50;4448542;32;34989;-65
2022/05/31 00:06:31;;;;;;;4.50;2.37;;;;;;;16.26;53.30;99536.06;4450434;32;35314;-65
2022/05/31 00:08:59;;;;;;;5.47;2.97;;;;;;;16.13;53.88;99523.97;4449758;32;33756;-64
2022/05/31 00:11:27;;;;;;;4.32;2.90;;;;;;;16.35;53.24;99522.63;4449625;32;33397;-64
2022/05/31 00:13:54;;;;;;;4.45;2.35;;;;;;;16.30;53.63;99523.09;4446623;32;34534;-64
2022/05/31 00:16:22;;;;;;;5.03;3.00;;;;;;;16.30;53.45;99520.37;4441092;32;35670;-64
2022/05/31 00:18:51;;;;;;;6.40;2.87;;;;;;;16.07;53.98;99526.28;4443917;32;33838;-64
2022/05/31 00:21:18;;;;;;;5.47;3.10;;;;;;;16.09;54.31;99526.13;4450610;32;34502;-64
2022/05/31 00:23:46;;;;;;;7.05;3.15;;;;;;;15.97;54.65;99528.22;4449717;32;33320;-65
2022/05/31 00:26:14;;;;;;;6.12;3.20;;;;;;;16.12;54.09;99533.09;4451144;32;34126;-65
2022/05/31 00:28:41;;;;;;;5.00;2.97;;;;;;;15.97;54.52;99535.47;4450559;32;34814;-64
2022/05/31 00:31:09;;;;;;;6.95;3.47;;;;;;;16.06;54.45;99534.53;4450315;32;33408;-67
2022/05/31 00:33:37;;;;;;;5.00;3.12;;;;;;;16.07;54.31;99539.78;4448102;32;33992;-67
2022/05/31 00:36:04;;;;;;;6.25;3.58;;;;;;;15.91;54.74;99538.78;4452870;32;34330;-67
2022/05/31 00:38:32;;;;;;;4.93;2.90;;;;;;;15.90;54.90;99548.72;4447814;32;32721;-66
2022/05/31 00:41:25;;;;;;;5.25;3.12;;;;;;;16.08;54.30;99556.81;4451636;32;33675;-64
2022/05/31 00:43:57;;;;;;;5.70;3.67;;;;;;;16.22;53.95;99542.78;4447269;32;35025;-65
2022/05/31 00:46:29;;;;;;;6.40;3.35;;;;;;;16.25;53.92;99549.72;4449308;32;34333;-64
2022/05/31 00:49:02;;;;;;;7.07;3.33;;;;;;;16.34;53.79;99554.22;4446304;32;34580;-64
2022/05/31 00:51:38;;;;;;;5.40;3.20;;;;;;;16.25;53.65;99557.84;4443283;32;34352;-64
2022/05/31 00:54:11;;;;;;;5.97;3.00;;;;;;;16.30;53.25;99555.50;4451986;32;32206;-65
2022/05/31 00:56:39;;;;;;;6.65;3.08;;;;;;;16.17;53.60;99563.16;4439264;32;33952;-64
2022/05/31 00:59:20;;;;;;;6.22;3.25;;;;;;;16.17;53.58;99566.69;4428635;32;32330;-67
2022/05/31 01:01:51;;;;;;;5.40;3.28;;;;;;;16.22;53.25;99566.25;4448600;32;33731;-65
2022/05/31 01:04:25;;;;;;;4.43;2.87;;;;;;;16.30;52.34;99563.59;4454609;32;34710;-66
2022/05/31 01:06:55;;;;;;;5.35;3.25;;;;;;;16.36;52.33;99575.63;4451442;32;34896;-64
2022/05/31 01:09:23;;;;;;;5.85;2.85;;;;;;;16.29;52.60;99570.84;4453262;32;33596;-66
2022/05/31 01:12:03;;;;;;;6.47;3.15;;;;;;;16.28;52.69;99566.47;4451753;32;34635;-65
2022/05/31 01:14:34;;;;;;;5.93;2.80;;;;;;;16.36;52.40;99571.09;4453514;32;33729;-65
2022/05/31 01:17:25;;;;;;;4.22;2.83;;;;;;;16.41;52.16;99571.47;4449145;32;35128;-64
2022/05/31 01:20:01;;;;;;;5.10;3.00;;;;;;;16.38;51.98;99576.34;4448275;32;33807;-65
2022/05/31 01:22:29;;;;;;;7.00;2.90;;;;;;;16.38;51.83;99571.78;4449814;32;33598;-65
2022/05/31 01:25:24;;;;;;;5.50;2.72;;;;;;;16.26;52.00;99575.72;4452973;32;33600;-66
2022/05/31 01:28:11;;;;;;;5.55;2.80;;;;;;;16.24;51.84;99577.72;4447249;32;34262;-65
2022/05/31 01:31:21;;;;;;;7.05;2.85;;;;;;;16.15;51.72;99584.91;4450714;32;34377;-64
2022/05/31 01:34:00;;;;;;;4.22;2.92;;;;;;;16.23;51.49;99586.84;4444629;32;33522;-65
2022/05/31 01:36:36;;;;;;;4.65;2.67;;;;;;;16.20;51.30;99584.44;4448479;32;34820;-65
2022/05/31 01:39:19;;;;;;;5.37;2.92;;;;;;;16.18;51.30;99575.63;4451540;32;34133;-65
2022/05/31 01:41:56;;;;;;;6.47;3.47;;;;;;;16.11;51.33;99588.06;4450299;32;33850;-68
2022/05/31 01:44:29;;;;;;;5.80;3.25;;;;;;;16.18;51.10;99576.50;4445949;32;34598;-66
2022/05/31 01:46:59;;;;;;;5.00;3.00;;;;;;;16.20;51.33;99590.69;4444164;32;34753;-66
2022/05/31 01:49:35;;;;;;;7.12;3.25;;;;;;;16.14;51.53;99590.47;4447229;32;35304;-64
2022/05/31 01:52:04;;;;;;;4.93;3.00;;;;;;;16.09;51.80;99595.50;4447371;32;33830;-65
2022/05/31 01:54:33;;;;;;;4.82;3.10;;;;;;;15.99;52.21;99590.16;4445422;32;32962;-65
2022/05/31 01:57:02;;;;;;;5.80;2.83;;;;;;;15.95;52.15;99588.75;4444169;32;33674;-65
2022/05/31 01:59:32;;;;;;;6.00;2.90;;;;;;;15.73;52.75;99584.63;4446707;32;34093;-65
2022/05/31 02:02:01;;;;;;;8.15;2.87;;;;;;;15.61;53.33;99597.47;4445404;32;33978;-63
2022/05/31 02:04:29;;;;;;;6.57;3.50;;;;;;;15.58;53.34;99598.59;4434131;32;34499;-65
2022/05/31 02:07:10;;;;;;;5.82;2.95;;;;;;;15.56;53.19;99594.34;4448616;32;35477;-65
2022/05/31 02:09:41;;;;;;;4.65;2.87;;;;;;;15.59;52.94;99594.91;4440040;32;34024;-65
2022/05/31 02:12:11;;;;;;;4.45;2.90;;;;;;;15.55;52.85;99598.91;4448168;32;35099;-65
2022/05/31 02:14:40;;;;;;;6.55;2.90;;;;;;;15.61;52.75;99592.91;4448459;32;34169;-64
2022/05/31 02:17:08;;;;;;;5.50;2.97;;;;;;;15.62;53.00;99596.47;4447172;32;32222;-64
2022/05/31 02:19:39;;;;;;;4.80;2.67;;;;;;;15.51;53.23;99602.06;4437890;32;34054;-67
2022/05/31 02:22:10;;;;;;;7.40;3.08;;;;;;;15.57;52.68;99602.31;4447238;32;35009;-64
2022/05/31 02:24:39;;;;;;;6.22;3.67;;;;;;;15.43;53.27;99592.00;4447442;32;33270;-66
2022/05/31 02:27:07;;;;;;;6.45;3.60;;;;;;;15.52;53.07;99598.38;4445404;32;34886;-64
2022/05/31 02:29:37;;;;;;;4.72;3.08;;;;;;;15.53;52.85;99600.91;4445669;32;33475;-65
2022/05/31 02:32:07;;;;;;;6.22;3.30;;;;;;;15.52;52.69;99592.97;4448184;32;32168;-64
2022/05/31 02:34:38;;;;;;;6.97;3.60;;;;;;;15.54;52.58;99589.13;4445895;32;31704;-71
2022/05/31 02:37:07;;;;;;;7.57;3.92;;;;;;;15.55;53.03;99590.81;4448820;32;34966;-64
2022/05/31 02:39:34;;;;;;;5.90;3.50;;;;;;;15.54;53.00;99593.69;4446983;32;32885;-64
2022/05/31 02:42:03;;;;;;;8.38;3.72;;;;;;;15.56;53.03;99602.44;4440636;32;33831;-64
2022/05/31 02:44:31;;;;;;;5.32;3.17;;;;;;;15.55;53.05;99603.47;4448491;32;32833;-63
2022/05/31 02:46:59;;;;;;;6.78;3.58;;;;;;;15.59;52.75;99603.00;4448892;32;33742;-64
2022/05/31 02:49:27;;;;;;;6.95;3.60;;;;;;;15.54;52.54;99605.31;4449005;32;34695;-64
2022/05/31 02:51:57;;;;;;;5.57;3.40;;;;;;;15.60;52.26;99607.41;4448520;32;35180;-64
2022/05/31 02:54:26;;;;;;;5.65;3.12;;;;;;;15.58;52.23;99609.41;4447327;32;33225;-64
2022/05/31 02:56:59;;;;;;;6.62;3.42;;;;;;;15.65;52.22;99608.81;4448874;32;35336;-63
2022/05/31 02:59:27;;;;;;;6.10;3.10;;;;;;;15.57;52.58;99609.56;4448094;32;35044;-64
2022/05/31 03:01:57;;;;;;;7.00;3.30;;;;;;;15.73;52.02;99611.59;4442964;32;33463;-63
2022/05/31 03:04:39;;;;;;;7.60;3.45;;;;;;;15.63;52.55;99608.09;4449255;32;34371;-63
2022/05/31 03:07:12;;;;;;;7.10;3.87;;;;;;;15.80;52.04;99601.94;4447771;32;32042;-64
2022/05/31 03:09:41;;;;;;;7.20;3.75;;;;;;;15.81;52.14;99600.91;4462915;32;33738;-64
2022/05/31 03:12:13;;;;;;;8.43;4.03;;;;;;;15.68;52.70;99598.59;4448283;32;36743;-66
2022/05/31 03:14:59;;;;;;;6.37;3.65;;;;;;;15.66;52.67;99602.41;4447458;32;33237;-65
2022/05/31 03:17:31;;;;;;;5.25;3.20;;;;;;;15.55;52.77;99609.69;4447020;32;32711;-65
2022/05/31 03:20:01;;;;;;;6.90;3.53;;;;;;;15.48;53.25;99603.22;4446576;32;33723;-67
2022/05/31 03:22:37;;;;;;;6.95;3.95;;;;;;;15.45;53.96;99598.13;4445856;32;33437;-66
2022/05/31 03:25:08;;;;;;;5.75;3.72;;;;;;;15.48;53.65;99602.38;4447113;32;33944;-65
2022/05/31 03:27:36;;;;;;;8.55;4.40;;;;;;;15.38;54.38;99597.03;4448416;32;33731;-64
2022/05/31 03:30:04;;;;;;;8.82;4.30;;;;;;;15.29;54.95;99593.34;4447618;32;33715;-67
2022/05/31 03:32:34;;;;;;;6.47;3.90;;;;;;;15.40;54.81;99597.69;4443272;32;34722;-66
2022/05/31 03:35:02;;;;;;;9.10;4.25;;;;;;;15.39;55.02;99596.00;4443321;32;34417;-65
2022/05/31 03:37:30;;;;;;;6.60;3.87;;;;;;;15.46;55.02;99602.50;4448099;32;32445;-65
2022/05/31 03:39:59;;;;;;;7.10;4.32;;;;;;;15.37;55.44;99608.78;4449179;32;33752;-65
2022/05/31 03:42:27;;;;;;;7.55;4.25;;;;;;;15.51;54.90;99608.31;4447482;32;34835;-66
2022/05/31 03:44:55;;;;;;;6.45;4.07;;;;;;;15.69;54.65;99607.53;4447871;32;33482;-64
2022/05/31 03:47:23;;;;;;;7.35;4.07;;;;;;;15.61;54.99;99610.94;4449175;32;33515;-66
2022/05/31 03:49:55;;;;;;;5.95;3.80;;;;;;;15.74;54.81;99613.34;4439977;32;32232;-65
2022/05/31 03:52:22;;;;;;;7.43;4.00;;;;;;;15.75;54.83;99613.16;4449028;32;32757;-65
2022/05/31 03:54:50;;;;;;;6.03;4.07;;;;;;;15.92;54.45;99611.53;4447571;32;32173;-63
2022/05/31 03:57:20;;;;;;;6.28;3.53;;;;;;;15.95;54.43;99610.34;4448821;32;32320;-65
2022/05/31 03:59:49;;;;;;;6.50;3.50;;;;;;;16.01;54.27;99615.97;4447264;32;31535;-65
2022/05/31 04:02:19;;;;;;;7.53;3.95;;;;;;;16.06;54.07;99615.53;4444919;32;33824;-64
2022/05/31 04:04:46;;;;;;;6.37;4.05;;;;;;;16.09;54.16;99617.09;4449175;32;34506;-64
2022/05/31 04:07:14;;;;;;;8.98;3.28;;;;;;;16.24;53.76;99618.22;4448100;32;33602;-66
2022/05/31 04:09:41;;;;;;;6.97;3.50;;;;;;;16.32;53.71;99621.03;4448510;32;32514;-66
2022/05/31 04:12:10;;;;;;;6.25;3.60;;;;;;;16.38;53.75;99631.22;4447617;32;33958;-65
2022/05/31 04:14:38;;;;;;;6.25;3.33;;;;;;;16.51;53.63;99622.72;4447061;32;33282;-67
2022/05/31 04:17:06;;;;;;;7.00;3.50;;;;;;;16.63;53.52;99626.87;4447685;32;34969;-64
2022/05/31 04:19:34;;;;;;;5.32;3.17;;;;;;;16.76;53.40;99627.34;4447778;32;34921;-65
2022/05/31 04:22:02;;;;;;;6.35;3.30;;;;;;;16.84;53.60;99623.84;4446170;32;35458;-65
2022/05/31 04:24:29;;;;;;;5.75;3.05;;;;;;;16.98;53.48;99617.00;4446624;32;36462;-65
2022/05/31 04:26:59;;;;;;;6.85;4.30;;;;;;;17.06;53.35;99622.47;4445858;32;32508;-65
2022/05/31 04:29:30;;;;;;;7.35;3.70;;;;;;;17.20;53.23;99623.72;4448873;32;35053;-66
2022/05/31 04:32:00;;;;;;;5.05;3.42;;;;;;;17.38;53.12;99619.09;4447393;32;33214;-64
2022/05/31 04:34:28;;;;;;;5.62;3.30;;;;;;;17.45;53.11;99617.44;4439860;32;34462;-67
2022/05/31 04:36:56;;;;;;;6.35;3.70;;;;;;;17.68;52.52;99606.88;4445872;32;34900;-64
2022/05/31 04:39:26;;;;;;;6.15;3.37;;;;;;;17.82;52.15;99605.47;4444735;32;32537;-65
2022/05/31 04:41:54;;;;;;;5.32;2.72;;;;;;;17.89;51.98;99613.75;4444778;32;35031;-65
2022/05/31 04:44:22;;;;;;;6.60;3.00;;;;;;;18.03;51.85;99609.56;4454621;32;34305;-66
2022/05/31 04:46:50;;;;;;;4.72;2.70;;;;;;;18.03;52.29;99617.69;4445467;32;34618;-65
2022/05/31 04:49:18;;;;;;;7.03;3.00;;;;;;;18.26;51.87;99607.91;4445259;32;33911;-66
2022/05/31 04:51:47;;;;;;;5.30;2.50;;;;;;;18.55;51.16;99609.28;4449190;32;32666;-67
2022/05/31 04:54:18;;;;;;;7.00;2.50;;;;;;;18.56;51.31;99606.41;4444538;32;34278;-68
2022/05/31 04:56:46;;;;;;;4.53;2.70;;;;;;;18.21;52.09;99612.16;4443378;32;33405;-65
2022/05/31 04:59:14;;;;;;;5.57;2.67;;;;;;;18.77;50.73;99605.06;4446730;32;32330;-68
2022/05/31 05:01:42;;;;;;;5.03;2.22;;;;;;;18.91;49.54;99611.66;4446049;32;32686;-67
2022/05/31 05:04:11;;;;;;;5.00;2.55;;;;;;;19.03;49.70;99607.56;4447235;32;34465;-65
2022/05/31 05:06:39;;;;;;;4.60;2.72;;;;;;;18.94;50.28;99611.31;4447446;32;35039;-66
2022/05/31 05:09:07;;;;;;;4.65;3.17;;;;;;;19.12;49.70;99606.53;4455810;32;32738;-67
2022/05/31 05:11:35;;;;;;;3.97;2.33;;;;;;;18.82;50.54;99611.69;4448579;32;34546;-65
2022/05/31 05:14:03;;;;;;;4.40;2.47;;;;;;;19.24;49.79;99613.28;4448318;32;34574;-65
2022/05/31 05:16:33;;;;;;;4.28;2.45;;;;;;;19.09;50.40;99607.72;4447762;32;33538;-67
2022/05/31 05:19:00;;;;;;;4.20;2.60;;;;;;;19.37;49.40;99607.31;4446792;32;35222;-64
2022/05/31 05:21:29;;;;;;;3.87;2.10;;;;;;;19.62;48.31;99607.25;4449707;32;34787;-65
2022/05/31 05:23:57;;;;;;;3.85;2.10;;;;;;;19.45;47.95;99617.28;4449463;32;34630;-64
2022/05/31 05:26:25;;;;;;;3.95;1.80;;;;;;;19.57;47.42;99618.59;4449864;32;33789;-63
2022/05/31 05:31:42;;;;;;;4.55;2.05;;;;;;;19.63;46.69;99619.78;4447532;32;34738;-65
2022/05/31 05:34:26;;;;;;;3.35;1.60;;;;;;;19.58;47.24;99617.56;4447877;32;32896;-65
2022/05/31 05:36:54;;;;;;;4.53;1.83;;;;;;;19.65;47.23;99615.91;4448526;32;33612;-65
2022/05/31 05:39:22;;;;;;;3.35;1.87;;;;;;;19.73;47.08;99615.84;4447257;32;33552;-67
2022/05/31 05:41:53;;;;;;;5.93;2.37;;;;;;;19.83;47.26;99622.94;4451039;32;34062;-66
2022/05/31 05:44:25;;;;;;;5.25;2.47;;;;;;;19.87;47.55;99625.16;4449675;32;34565;-65
2022/05/31 05:46:53;;;;;;;4.18;2.25;;;;;;;19.68;48.59;99625.56;4450074;32;33836;-65
2022/05/31 05:49:20;;;;;;;6.57;2.47;;;;;;;19.73;48.24;99609.59;4449233;32;32885;-66
2022/05/31 05:51:49;;;;;;;5.87;2.45;;;;;;;19.59;48.15;99619.28;4445121;32;34531;-67
2022/05/31 05:54:26;;;;;;;5.75;2.55;;;;;;;19.68;48.39;99621.00;4448433;32;34505;-67
2022/05/31 05:56:59;;;;;;;5.75;2.58;;;;;;;19.84;48.39;99625.50;4447457;32;34431;-67
2022/05/31 05:59:33;;;;;;;4.20;2.17;;;;;;;19.95;48.31;99624.25;4445926;32;32465;-67
2022/05/31 06:02:17;;;;;;;6.80;2.70;;;;;;;20.22;47.88;99626.47;4447447;32;32441;-66
2022/05/31 06:05:08;;;;;;;7.43;3.05;;;;;;;20.19;48.02;99631.38;4433382;32;33370;-67
2022/05/31 06:07:41;;;;;;;6.50;2.72;;;;;;;20.24;47.89;99632.56;4447285;32;35384;-66
2022/05/31 06:10:21;;;;;;;5.70;2.37;;;;;;;20.06;48.08;99631.97;4448968;32;32621;-64
2022/05/31 06:13:01;;;;;;;7.28;2.87;;;;;;;19.96;48.76;99634.06;4447937;32;33828;-66
2022/05/31 06:15:33;;;;;;;5.35;2.37;;;;;;;19.77;48.58;99632.63;4442308;32;33147;-68
2022/05/31 06:18:06;;;;;;;5.70;2.70;;;;;;;20.27;47.65;99635.94;4447888;32;33754;-67
2022/05/31 06:20:34;;;;;;;5.75;2.60;;;;;;;20.22;47.00;99640.06;4450112;32;35027;-67
2022/05/31 06:23:02;;;;;;;6.18;2.40;;;;;;;20.21;46.29;99641.06;4446380;32;34945;-65
2022/05/31 06:25:29;;;;;;;5.97;2.75;;;;;;;20.36;46.02;99634.87;4445797;32;33344;-65
2022/05/31 06:27:58;;;;;;;4.87;2.25;;;;;;;20.29;46.55;99640.19;4449286;32;33830;-65
2022/05/31 06:30:26;;;;;;;4.28;2.00;;;;;;;20.47;46.42;99639.88;4449150;32;34732;-65
2022/05/31 06:32:54;;;;;;;5.68;2.12;;;;;;;20.28;46.52;99634.91;4448476;32;33622;-67
2022/05/31 06:35:22;;;;;;;4.72;2.20;;;;;;;20.39;46.08;99650.81;4449503;32;34032;-64
2022/05/31 06:37:50;;;;;;;5.03;2.20;;;;;;;20.34;46.03;99651.34;4442864;32;34740;-65
2022/05/31 06:40:18;;;;;;;4.22;2.42;;;;;;;20.50;46.61;99658.53;4446975;32;35041;-66
2022/05/31 06:42:47;;;;;;;7.43;2.12;;;;;;;20.55;45.86;99664.31;4449049;32;32636;-68
2022/05/31 06:45:20;;;;;;;3.45;1.90;;;;;;;20.39;45.26;99665.25;4445985;32;34296;-66
2022/05/31 06:47:50;;;;;;;5.75;2.80;;;;;;;20.50;45.38;99666.69;4446264;32;33384;-69
2022/05/31 06:50:23;;;;;;;5.50;3.28;;;;;;;20.23;45.36;99660.75;4447833;32;36286;-65
2022/05/31 06:58:27;;;;;;;4.20;2.03;;;;;;;20.93;44.86;99654.31;4448881;32;35123;-64
2022/05/31 07:00:56;;;;;;;4.95;2.00;;;;;;;20.49;46.10;99648.69;4444266;32;34993;-67
2022/05/31 07:03:24;;;;;;;4.93;2.33;;;;;;;20.74;45.16;99651.25;4443936;32;32718;-65
2022/05/31 07:05:59;;;;;;;6.00;2.50;;;;;;;21.01;43.85;99652.56;4449703;32;32221;-67
2022/05/31 07:08:26;;;;;;;4.55;2.28;;;;;;;20.82;43.96;99652.03;4448369;32;33588;-67
2022/05/31 07:11:02;;;;;;;5.62;2.22;;;;;;;20.51;44.86;99646.66;4449253;32;32412;-65
2022/05/31 07:13:31;;;;;;;4.97;2.50;;;;;;;20.49;45.19;99651.41;4448640;32;33430;-65
2022/05/31 07:16:01;;;;;;;5.82;2.10;;;;;;;20.80;43.81;99650.50;4448417;32;33175;-64
2022/05/31 07:18:47;;;;;;;5.75;2.55;;;;;;;20.81;44.35;99646.78;4448622;32;32156;-65
2022/05/31 07:21:15;;;;;;;4.45;2.20;;;;;;;20.73;44.78;99644.97;4450667;32;33793;-65
2022/05/31 07:23:43;;;;;;;5.45;2.40;;;;;;;20.48;44.86;99652.44;4449581;32;34047;-64
2022/05/31 07:26:12;;;;;;;6.85;2.80;;;;;;;20.80;44.55;99650.50;4450904;32;32914;-65
2022/05/31 07:29:01;;;;;;;5.05;2.50;;;;;;;20.51;45.09;99651.22;4450898;32;35122;-64
2022/05/31 07:31:28;;;;;;;5.00;2.53;;;;;;;20.46;44.61;99659.94;4444004;32;198731;-65
2022/05/31 07:33:58;;;;;;;4.90;2.70;;;;;;;20.70;44.53;99659.78;4449529;32;33864;-65
2022/05/31 07:36:26;;;;;;;7.05;2.72;;;;;;;20.64;44.45;99656.94;4449379;32;32923;-64
2022/05/31 07:38:55;;;;;;;4.28;2.42;;;;;;;20.68;44.28;99656.41;4450433;32;35063;-64
2022/05/31 07:41:22;;;;;;;5.15;2.30;;;;;;;20.29;44.72;99659.22;4450589;32;34360;-65
2022/05/31 07:43:52;;;;;;;6.25;3.15;;;;;;;20.66;43.91;99654.88;4448828;32;33969;-67
2022/05/31 07:46:20;;;;;;;6.20;2.50;;;;;;;20.79;43.43;99657.84;4451432;32;32142;-66
2022/05/31 07:48:48;;;;;;;8.05;2.78;;;;;;;20.70;44.53;99658.94;4452262;32;33518;-63
2022/05/31 07:51:18;;;;;;;8.68;2.78;;;;;;;21.20;43.22;99662.06;4449519;32;32366;-65
2022/05/31 07:53:52;;;;;;;6.65;3.12;;;;;;;20.96;44.46;99666.69;4451960;32;35488;-65
2022/05/31 07:56:27;;;;;;;4.82;2.50;;;;;;;20.91;43.24;99669.97;4452409;32;32305;-65
2022/05/31 07:58:57;;;;;;;9.10;3.60;;;;;;;21.05;43.09;99670.19;4449802;32;34966;-66
2022/05/31 08:01:34;;;;;;;6.75;4.00;;;;;;;21.13;43.49;99672.84;4451792;32;32843;-67
2022/05/31 08:04:02;;;;;;;8.40;4.10;;;;;;;21.02;43.22;99670.56;4449764;32;32858;-66
2022/05/31 08:06:33;;;;;;;8.27;3.72;;;;;;;20.52;43.80;99667.41;4460147;32;33301;-64
2022/05/31 08:09:03;;;;;;;7.78;3.47;;;;;;;20.83;43.22;99672.75;4449543;32;34134;-64
2022/05/31 08:11:32;;;;;;;7.03;3.80;;;;;;;20.62;44.14;99670.72;4448485;32;35248;-65
2022/05/31 08:14:01;;;;;;;5.95;3.15;;;;;;;20.64;44.61;99673.25;4438515;32;32422;-79
2022/05/31 08:16:29;;;;;;;7.03;3.30;;;;;;;20.77;44.26;99678.06;4451372;32;33639;-63
2022/05/31 08:18:58;;;;;;;8.32;3.42;;;;;;;21.01;43.68;99687.94;4450113;32;33855;-65
2022/05/31 08:21:27;;;;;;;7.53;3.85;;;;;;;21.05;42.94;99676.47;4451554;32;35101;-65
2022/05/31 08:23:57;;;;;;;7.00;3.55;;;;;;;21.04;43.59;99673.97;4449211;32;33677;-65
2022/05/31 08:26:25;;;;;;;9.35;4.78;;;;;;;21.27;43.66;99676.62;4448646;32;34516;-63
2022/05/31 08:28:53;;;;;;;8.23;3.65;;;;;;;20.96;43.96;99676.75;4450519;32;35263;-64
2022/05/31 08:31:31;;;;;;;6.43;3.67;;;;;;;21.48;43.85;99676.78;4448114;32;34556;-65
2022/05/31 08:33:59;;;;;;;7.35;3.58;;;;;;;21.16;44.19;99681.50;4444205;32;33686;-64
2022/05/31 08:36:26;;;;;;;6.65;2.78;;;;;;;21.50;43.05;99680.16;4449525;32;33326;-63
2022/05/31 08:38:54;;;;;;;5.68;3.12;;;;;;;21.67;43.72;99682.69;4450291;32;32545;-65
2022/05/31 08:41:27;;;;;;;6.87;3.90;;;;;;;21.40;44.06;99690.47;4450645;32;35314;-64
2022/05/31 08:44:28;;;;;;;9.35;3.58;;;;;;;21.45;43.32;99681.75;4449201;32;32728;-65
2022/05/31 08:47:01;;;;;;;7.78;3.60;;;;;;;21.54;43.26;99681.47;4437458;32;34583;-64
2022/05/31 08:52:49;;;;;;;6.47;3.75;;;;;;;21.48;44.75;99682.22;4444096;32;33179;-64
2022/05/31 08:58:19;;;;;;;8.00;3.50;;;;;;;21.60;44.11;99696.22;4452370;32;34572;-65
2022/05/31 09:00:49;;;;;;;7.93;3.83;;;;;;;21.68;43.63;99682.50;4450725;32;32341;-64
2022/05/31 09:03:20;;;;;;;8.02;4.35;;;;;;;21.28;44.95;99679.16;4447975;32;32946;-65
2022/05/31 09:05:59;;;;;;;8.00;3.53;;;;;;;20.88;45.43;99681.22;4439277;32;32428;-65
2022/05/31 09:08:46;;;;;;;7.28;3.65;;;;;;;21.16;44.42;99680.66;4452577;32;33014;-65
2022/05/31 09:11:21;;;;;;;8.27;3.70;;;;;;;21.63;44.33;99674.88;4447173;32;33605;-65
2022/05/31 09:14:07;;;;;;;8.75;3.97;;;;;;;21.27;45.08;99673.91;4437300;32;33702;-65
2022/05/31 09:16:49;;;;;;;12.37;4.22;;;;;;;20.84;46.07;99674.47;4451608;32;32515;-67
2022/05/31 09:19:29;;;;;;;8.75;3.67;;;;;;;21.28;45.02;99670.97;4450576;32;34699;-65
2022/05/31 09:21:57;;;;;;;6.35;3.45;;;;;;;21.63;44.36;99674.03;4449606;32;32629;-64
2022/05/31 09:24:24;;;;;;;7.40;3.90;;;;;;;21.59;43.94;99670.84;4449683;32;32807;-67
2022/05/31 09:27:09;;;;;;;9.00;3.90;;;;;;;21.36;44.14;99668.22;4451105;32;33553;-69
2022/05/31 09:30:08;;;;;;;6.90;3.55;;;;;;;21.34;44.64;99674.84;4453611;32;33492;-65
2022/05/31 09:32:45;;;;;;;7.68;3.67;;;;;;;21.40;43.72;99669.53;4449650;32;34943;-64
2022/05/31 09:35:29;;;;;;;8.73;4.60;;;;;;;21.45;44.80;99665.44;4453557;32;35134;-64
2022/05/31 09:38:25;;;;;;;8.15;3.95;;;;;;;21.33;45.17;99674.00;4452518;32;34631;-64
2022/05/31 09:40:54;;;;;;;;;;;;;;;21.28;45.56;99681.03;4451972;32;32171;-67
2022/05/31 09:43:35;;;;;;;7.97;3.90;;;;;;;21.92;43.92;99670.47;4436861;32;32977;-66
2022/05/31 09:46:10;;;;;;;7.00;4.00;;;;;;;21.79;44.33;99675.72;4452623;32;32684;-68
2022/05/31 09:48:50;;;;;;;8.88;3.80;;;;;;;21.23;45.01;99670.72;4451262;32;33938;-66
2022/05/31 09:51:20;;;;;;;8.70;3.58;;;;;;;21.26;45.06;99667.63;4453747;32;33388;-67
2022/05/31 09:59:28;;;;;;;7.87;4.30;;;;;;;21.45;44.83;99671.72;4450541;32;34654;-65
2022/05/31 10:02:25;;;;;;;8.63;4.20;;;;;;;21.59;44.31;99670.00;4450997;32;31790;-65
2022/05/31 10:05:11;;;;;;;10.25;3.58;;;;;;;21.46;44.45;99659.78;4448900;32;34649;-67
2022/05/31 10:07:40;;;;;;;5.90;3.90;;;;;;;21.35;45.07;99657.53;4451830;32;32455;-65
2022/05/31 10:10:11;;;;;;;6.87;3.58;;;;;;;21.51;44.75;99657.34;4450795;32;32651;-71
2022/05/31 10:12:48;;;;;;;8.05;3.53;;;;;;;21.75;44.76;99652.63;4451068;32;31970;-67
2022/05/31 10:15:50;;;;;;;8.95;3.83;;;;;;;21.70;45.35;99655.94;4452090;32;32508;-70
2022/05/31 10:18:28;;;;;;;7.15;3.35;;;;;;;22.14;44.00;99654.16;4425983;32;32820;-69
2022/05/31 10:20:58;;;;;;;8.02;3.70;;;;;;;22.55;43.07;99647.09;4446659;32;34659;-66
2022/05/31 10:23:33;;;;;;;7.05;3.78;;;;;;;22.69;42.52;99631.69;4451139;32;33408;-66
2022/05/31 10:26:03;;;;;;;8.30;2.95;;;;;;;22.43;42.76;99636.91;4449511;32;32632;-67
2022/05/31 10:28:41;;;;;;;8.02;3.60;;;;;;;22.41;42.79;99644.44;4448712;32;33542;-67
2022/05/31 10:31:18;;;;;;;7.97;3.65;;;;;;;22.25;43.55;99643.66;4443582;32;33707;-66
2022/05/31 10:33:52;;;;;;;6.87;3.28;;;;;;;22.34;41.91;99633.44;4442840;32;34169;-66
2022/05/31 10:36:22;;;;;;;7.80;3.10;;;;;;;22.72;42.05;99639.50;4429701;32;33704;-65
2022/05/31 10:38:50;;;;;;;7.68;3.85;;;;;;;22.97;42.50;99645.41;4448020;32;33679;-66
2022/05/31 10:41:28;;;;;;;6.57;3.10;;;;;;;22.68;41.94;99649.13;4446610;32;34256;-65
2022/05/31 10:44:22;;;;;;;8.43;3.47;;;;;;;23.02;41.75;99640.22;4446910;32;32464;-65
2022/05/31 10:46:52;;;;;;;5.82;3.30;;;;;;;23.00;41.59;99639.56;4444211;32;35022;-66
2022/05/31 10:49:21;;;;;;;6.12;3.17;;;;;;;23.16;41.34;99643.03;4438990;32;33792;-64
2022/05/31 10:51:58;;;;;;;7.07;2.75;;;;;;;22.44;43.70;99639.44;4441029;32;32347;-64
2022/05/31 10:54:45;;;;;;;7.00;2.97;;;;;;;22.42;43.45;99652.44;4441584;32;33324;-65
2022/05/31 10:57:20;;;;;;;7.78;3.10;;;;;;;22.64;41.63;99647.00;4446783;32;34787;-68
2022/05/31 10:59:54;;;;;;;4.60;2.50;;;;;;;22.78;41.95;99637.88;4447379;32;32577;-65
2022/05/31 11:02:37;;;;;;;6.12;3.12;;;;;;;22.54;42.62;99639.12;4442564;32;33252;-66
2022/05/31 11:05:09;;;;;;;4.70;2.62;;;;;;;22.46;41.94;99641.97;4448427;32;33301;-66
2022/05/31 11:11:30;;;;;;;6.60;3.00;;;;;;;22.71;42.31;99636.97;4411433;32;35084;-67
2022/05/31 11:14:21;;;;;;;7.47;2.85;;;;;;;22.80;42.09;99622.16;4445191;32;33603;-66
2022/05/31 11:16:55;;;;;;;6.45;3.08;;;;;;;22.88;42.80;99630.19;4445271;32;33544;-66
2022/05/31 11:20:11;;;;;;;6.90;3.05;;;;;;;23.15;40.83;99628.56;4440831;32;33766;-67
2022/05/31 11:23:23;;;;;;;12.85;4.60;;;;;;;22.88;41.74;99629.34;4442039;32;33181;-65
2022/05/31 11:26:22;;;;;;;6.60;3.17;;;;;;;22.59;42.51;99635.81;4399081;32;32550;-65
2022/05/31 11:29:22;;;;;;;6.57;2.87;;;;;;;22.54;42.58;99629.06;4399725;32;32023;-65
2022/05/31 11:32:02;;;;;;;6.53;2.80;;;;;;;23.40;40.45;99618.00;4439116;32;32295;-65
2022/05/31 11:34:51;;;;;;;7.53;2.95;;;;;;;23.13;41.32;99624.34;4448123;32;33725;-66
2022/05/31 11:37:28;;;;;;;6.72;2.62;;;;;;;23.72;39.95;99607.47;4445433;32;33620;-67
2022/05/31 11:40:07;;;;;;;5.62;2.85;;;;;;;23.53;41.05;99611.78;4432499;32;32672;-66
2022/05/31 11:43:02;;;;;;;4.93;2.40;;;;;;;23.82;39.05;99604.34;4443201;32;32587;-68
2022/05/31 11:46:01;;;;;;;7.82;3.78;;;;;;;23.76;39.47;99607.94;4442393;32;34118;-66
2022/05/31 11:48:47;;;;;;;7.40;3.28;;;;;;;23.76;39.04;99607.94;4447926;32;33806;-68
2022/05/31 11:51:53;;;;;;;5.28;2.45;;;;;;;23.84;38.34;99605.84;4444451;32;31937;-67
2022/05/31 11:54:33;;;;;;;6.18;3.08;;;;;;;23.71;39.29;99608.53;4426853;32;32434;-64
2022/05/31 11:57:13;;;;;;;9.45;2.85;;;;;;;23.79;39.52;99602.03;4446324;32;34125;-63
2022/05/31 11:59:52;;;;;;;6.28;3.17;;;;;;;24.15;38.19;99599.03;4446817;32;33589;-62
2022/05/31 12:02:29;;;;;;;7.20;3.12;;;;;;;23.89;38.76;99600.62;4450430;32;34110;-66
2022/05/31 12:05:05;;;;;;;7.43;3.35;;;;;;;24.20;38.04;99604.69;4446318;32;33674;-66
2022/05/31 12:07:47;;;;;;;5.87;3.53;;;;;;;23.74;38.94;99594.47;4440484;32;32986;-64
2022/05/31 12:10:22;;;;;;;5.97;3.53;;;;;;;24.00;39.08;99590.13;4442179;32;32283;-65
2022/05/31 12:12:50;;;;;;;9.90;3.83;;;;;;;23.67;38.71;99588.09;4436170;32;34536;-66
2022/05/31 12:15:23;;;;;;;6.32;3.65;;;;;;;23.93;37.77;99584.66;4434891;32;33814;-64
2022/05/31 12:18:09;;;;;;;9.07;4.12;;;;;;;23.92;38.43;99570.16;4447496;32;35676;-64
2022/05/31 12:20:42;;;;;;;5.22;3.03;;;;;;;23.66;38.38;99567.28;4448672;32;32591;-66
2022/05/31 12:23:38;;;;;;;6.10;3.22;;;;;;;24.12;38.30;99572.09;4449903;32;33299;-64
2022/05/31 12:26:24;;;;;;;8.75;3.75;;;;;;;24.34;37.96;99568.13;4450013;32;34651;-66
2022/05/31 12:29:00;;;;;;;5.93;3.65;;;;;;;23.81;39.37;99565.25;4454423;32;34932;-66